Time;durP1;ratioP1;P1;durP2;ratioP2;P2;SDS_P1;SDS_P2;PMS_P1;PMS_P2;Temp;Humidity;BMP_temperature;BMP_pressure;BME280_temperature;BME280_humidity;BME280_pressure;Samples;Min_cycle;Max_cycle;Signal;HPM_P1;HPM_P2
2022/12/28 00:00:39;;;;;;;;;8.50;7.50;;;;;;;;4959465;28;11562;-81
2022/12/28 00:03:06;;;;;;;;;13.50;10.50;;;;;;;;4959067;28;11499;-79
2022/12/28 00:05:34;;;;;;;;;10.50;10.50;;;;;;;;4978012;28;11577;-81
2022/12/28 00:08:01;;;;;;;;;11.00;9.25;;;;;;;;4967751;28;12309;-80
2022/12/28 00:10:28;;;;;;;;;9.00;9.00;;;;;;;;4955166;28;11452;-80
2022/12/28 00:12:56;;;;;;;;;10.50;10.50;;;;;;;;4962610;28;11529;-80
2022/12/28 00:15:23;;;;;;;;;7.25;7.25;;;;;;;;4955838;28;11462;-81
2022/12/28 00:17:52;;;;;;;;;10.00;7.75;;;;;;;;4968874;28;11252;-80
2022/12/28 00:20:20;;;;;;;;;8.00;8.00;;;;;;;;4964145;28;11182;-80
2022/12/28 00:22:47;;;;;;;;;12.50;7.50;;;;;;;;4973269;28;11143;-80
2022/12/28 00:25:14;;;;;;;;;8.50;8.50;;;;;;;;4969026;28;11170;-80
2022/12/28 00:27:42;;;;;;;;;8.00;8.00;;;;;;;;4977977;28;11324;-81
2022/12/28 00:30:11;;;;;;;;;5.00;5.00;;;;;;;;4969096;28;11139;-80
2022/12/28 00:32:39;;;;;;;;;7.00;4.75;;;;;;;;4954663;28;11071;-80
2022/12/28 00:35:09;;;;;;;;;7.00;7.00;;;;;;;;4973210;28;11075;-79
2022/12/28 00:37:36;;;;;;;;;8.25;7.75;;;;;;;;4957343;28;11121;-80
2022/12/28 00:40:04;;;;;;;;;10.00;8.25;;;;;;;;4973686;28;10908;-80
2022/12/28 00:42:32;;;;;;;;;4.75;4.75;;;;;;;;4972512;28;11182;-79
2022/12/28 00:44:59;;;;;;;;;6.50;4.50;;;;;;;;4973065;28;10995;-80
2022/12/28 00:47:28;;;;;;;;;7.75;7.00;;;;;;;;4946482;28;11050;-80
2022/12/28 00:49:56;;;;;;;;;5.00;5.00;;;;;;;;4957438;28;10989;-80
2022/12/28 00:52:25;;;;;;;;;7.50;4.50;;;;;;;;4966353;28;10957;-81
2022/12/28 00:54:52;;;;;;;;;7.00;5.00;;;;;;;;4967027;28;10859;-81
2022/12/28 00:57:19;;;;;;;;;7.00;7.00;;;;;;;;4961676;28;10935;-80
2022/12/28 00:59:47;;;;;;;;;3.25;3.25;;;;;;;;4964487;28;10856;-80
2022/12/28 01:02:14;;;;;;;;;5.00;5.00;;;;;;;;4959061;28;10971;-80
2022/12/28 01:04:41;;;;;;;;;7.00;7.00;;;;;;;;4963477;28;10907;-80
2022/12/28 01:07:09;;;;;;;;;5.00;5.00;;;;;;;;4967840;28;10831;-81
2022/12/28 01:09:38;;;;;;;;;6.50;6.50;;;;;;;;4958164;28;10804;-80
2022/12/28 01:12:06;;;;;;;;;7.50;6.50;;;;;;;;4955031;28;10830;-79
2022/12/28 01:14:33;;;;;;;;;3.25;3.25;;;;;;;;4966329;28;11002;-81
2022/12/28 01:17:00;;;;;;;;;4.00;4.00;;;;;;;;4970315;28;11764;-81
2022/12/28 01:19:28;;;;;;;;;4.00;4.00;;;;;;;;4975745;28;10936;-81
2022/12/28 01:21:57;;;;;;;;;5.00;3.00;;;;;;;;4975040;28;10774;-80
2022/12/28 01:24:24;;;;;;;;;3.25;3.25;;;;;;;;4962374;28;10741;-80
2022/12/28 01:26:53;;;;;;;;;4.75;4.75;;;;;;;;4963998;28;10716;-80
2022/12/28 01:29:21;;;;;;;;;5.00;3.00;;;;;;;;4956186;28;10728;-81
2022/12/28 01:31:48;;;;;;;;;3.75;3.00;;;;;;;;4970528;28;11477;-82
2022/12/28 01:34:15;;;;;;;;;4.25;4.25;;;;;;;;4966433;28;10587;-80
2022/12/28 01:36:43;;;;;;;;;2.50;2.50;;;;;;;;4963360;28;10725;-80
2022/12/28 01:39:11;;;;;;;;;2.75;2.75;;;;;;;;4979601;28;10669;-81
2022/12/28 01:41:40;;;;;;;;;1.50;1.50;;;;;;;;4959041;28;10802;-81
2022/12/28 01:44:44;;;;;;;;;2.25;2.25;;;;;;;;4963302;28;10708;-81
2022/12/28 01:47:15;;;;;;;;;4.00;2.25;;;;;;;;4956767;28;10620;-80
2022/12/28 01:49:47;;;;;;;;;3.00;3.00;;;;;;;;4971454;28;10629;-81
2022/12/28 01:52:18;;;;;;;;;3.00;3.00;;;;;;;;4959667;28;10740;-80
2022/12/28 01:54:48;;;;;;;;;3.25;3.25;;;;;;;;4964194;28;10794;-81
2022/12/28 01:57:16;;;;;;;;;4.00;2.50;;;;;;;;4962797;28;11398;-82
2022/12/28 01:59:47;;;;;;;;;3.00;3.00;;;;;;;;4962710;28;11285;-80
2022/12/28 02:02:16;;;;;;;;;3.00;3.00;;;;;;;;4970127;28;10722;-80
2022/12/28 02:04:44;;;;;;;;;2.00;2.00;;;;;;;;4965453;28;10697;-80
2022/12/28 02:07:13;;;;;;;;;2.50;2.50;;;;;;;;4960083;28;10587;-80
2022/12/28 02:09:41;;;;;;;;;3.00;3.00;;;;;;;;4961364;28;11300;-80
2022/12/28 02:12:10;;;;;;;;;3.00;3.00;;;;;;;;4957898;28;10659;-80
2022/12/28 02:14:38;;;;;;;;;3.50;2.00;;;;;;;;4958846;28;10890;-80
2022/12/28 02:17:09;;;;;;;;;1.00;1.00;;;;;;;;4953894;28;10577;-80
2022/12/28 02:19:46;;;;;;;;;2.25;2.00;;;;;;;;4960923;28;10591;-80
2022/12/28 02:22:56;;;;;;;;;5.00;3.25;;;;;;;;4960878;28;10690;-80
2022/12/28 02:26:01;;;;;;;;;3.75;3.75;;;;;;;;4923175;28;10733;-81
2022/12/28 02:29:08;;;;;;;;;2.00;2.00;;;;;;;;4962553;28;10680;-81
2022/12/28 02:31:42;;;;;;;;;5.00;3.75;;;;;;;;4924467;28;10643;-84
2022/12/28 02:34:16;;;;;;;;;3.75;2.00;;;;;;;;4965793;28;10704;-81
2022/12/28 02:36:53;;;;;;;;;2.25;2.00;;;;;;;;4946835;28;10516;-81
2022/12/28 02:39:25;;;;;;;;;2.00;2.00;;;;;;;;4957858;28;10490;-81
2022/12/28 02:41:53;;;;;;;;;1.50;1.50;;;;;;;;4952599;28;11030;-81
2022/12/28 02:50:07;;;;;;;;;6.75;4.00;;;;;;;;4935951;28;11361;-81
2022/12/28 02:53:04;;;;;;;;;4.00;4.00;;;;;;;;4953857;28;11372;-80
2022/12/28 02:59:00;;;;;;;;;1.00;1.00;;;;;;;;4965403;28;10402;-81
2022/12/28 03:01:40;;;;;;;;;4.00;4.00;;;;;;;;4956424;28;10452;-80
2022/12/28 03:04:16;;;;;;;;;2.25;1.00;;;;;;;;4957654;28;10554;-80
2022/12/28 03:09:41;;;;;;;;;3.75;3.75;;;;;;;;4961544;28;10464;-81
2022/12/28 03:12:11;;;;;;;;;3.25;3.25;;;;;;;;4952329;28;10476;-80
2022/12/28 03:14:43;;;;;;;;;2.75;2.75;;;;;;;;4958177;28;10466;-81
2022/12/28 03:31:09;;;;;;;;;2.00;2.00;;;;;;;;4959916;28;10486;-80
2022/12/28 03:33:40;;;;;;;;;3.00;3.00;;;;;;;;4960168;28;10339;-80
2022/12/28 03:36:12;;;;;;;;;1.00;0.75;;;;;;;;4957472;28;10483;-81
2022/12/28 03:38:48;;;;;;;;;1.75;1.75;;;;;;;;4959911;28;10381;-81
2022/12/28 03:41:17;;;;;;;;;2.00;2.00;;;;;;;;4965215;28;10390;-79
2022/12/28 03:43:48;;;;;;;;;3.50;2.00;;;;;;;;4964990;28;10530;-80
2022/12/28 03:46:19;;;;;;;;;1.00;1.00;;;;;;;;4975703;28;10441;-81
2022/12/28 03:48:48;;;;;;;;;2.00;2.00;;;;;;;;4960756;28;10275;-81
2022/12/28 03:51:21;;;;;;;;;1.75;1.75;;;;;;;;4973059;28;10287;-79
2022/12/28 03:53:48;;;;;;;;;1.00;1.00;;;;;;;;4958259;28;10397;-81
2022/12/28 03:56:18;;;;;;;;;3.00;2.25;;;;;;;;4970081;28;10164;-80
2022/12/28 03:58:45;;;;;;;;;2.75;2.75;;;;;;;;4957208;28;10272;-81
2022/12/28 04:01:13;;;;;;;;;2.00;2.00;;;;;;;;4960602;28;10260;-80
2022/12/28 04:03:41;;;;;;;;;1.50;1.50;;;;;;;;4962556;28;10345;-81
2022/12/28 04:06:10;;;;;;;;;2.00;2.00;;;;;;;;4960401;28;10222;-81
2022/12/28 04:08:39;;;;;;;;;1.25;1.25;;;;;;;;4967053;28;10262;-80
2022/12/28 04:11:06;;;;;;;;;1.00;1.00;;;;;;;;4971003;28;11023;-81
2022/12/28 04:13:34;;;;;;;;;2.00;1.00;;;;;;;;4951048;28;10211;-81
2022/12/28 04:16:03;;;;;;;;;2.00;2.00;;;;;;;;4960293;28;10899;-80
2022/12/28 04:18:31;;;;;;;;;3.75;2.00;;;;;;;;4973544;28;10208;-80
2022/12/28 04:20:59;;;;;;;;;2.00;2.00;;;;;;;;4974837;28;10250;-80
2022/12/28 04:23:26;;;;;;;;;2.50;2.50;;;;;;;;4960772;28;10958;-81
2022/12/28 04:26:00;;;;;;;;;2.00;2.00;;;;;;;;4955364;28;10344;-81
2022/12/28 04:28:28;;;;;;;;;1.75;1.75;;;;;;;;4958184;28;10165;-81
2022/12/28 04:30:56;;;;;;;;;1.75;1.75;;;;;;;;4963965;28;10199;-81
2022/12/28 04:33:24;;;;;;;;;2.00;2.00;;;;;;;;4960987;28;10177;-80
2022/12/28 04:35:51;;;;;;;;;2.00;2.00;;;;;;;;4957649;28;10380;-80
2022/12/28 04:38:19;;;;;;;;;2.00;2.00;;;;;;;;4974355;28;10246;-81
2022/12/28 04:40:46;;;;;;;;;5.75;2.25;;;;;;;;4953226;28;10292;-80
2022/12/28 04:43:15;;;;;;;;;3.00;3.00;;;;;;;;4974716;28;10345;-81
2022/12/28 04:45:43;;;;;;;;;3.25;2.00;;;;;;;;4962705;28;10704;-81
2022/12/28 04:48:10;;;;;;;;;3.00;3.00;;;;;;;;4960111;28;10167;-81
2022/12/28 04:50:38;;;;;;;;;3.25;3.00;;;;;;;;4955331;28;10108;-81
2022/12/28 04:53:05;;;;;;;;;4.25;3.00;;;;;;;;4965068;28;10331;-81
2022/12/28 04:55:35;;;;;;;;;2.00;2.00;;;;;;;;4958976;28;10286;-80
2022/12/28 04:58:02;;;;;;;;;4.00;3.25;;;;;;;;4954004;28;10346;-81
2022/12/28 05:00:31;;;;;;;;;3.25;3.25;;;;;;;;4965618;28;10373;-81
2022/12/28 05:02:59;;;;;;;;;2.75;2.75;;;;;;;;4968629;28;10318;-80
2022/12/28 05:05:28;;;;;;;;;4.00;4.00;;;;;;;;4968770;28;10365;-81
2022/12/28 05:07:55;;;;;;;;;4.25;4.25;;;;;;;;4977303;28;10398;-80
2022/12/28 05:10:23;;;;;;;;;4.00;3.00;;;;;;;;4983266;28;10342;-81
2022/12/28 05:12:50;;;;;;;;;4.25;4.25;;;;;;;;4969144;28;10262;-81
2022/12/28 05:15:18;;;;;;;;;3.50;3.00;;;;;;;;4968706;28;10358;-81
2022/12/28 05:17:47;;;;;;;;;5.00;3.00;;;;;;;;4968110;28;10239;-80
2022/12/28 05:20:15;;;;;;;;;3.00;3.00;;;;;;;;4956935;28;10257;-80
2022/12/28 05:22:43;;;;;;;;;5.75;4.00;;;;;;;;4960109;28;10567;-80
2022/12/28 05:25:10;;;;;;;;;3.75;3.75;;;;;;;;4959237;28;10507;-81
2022/12/28 05:27:38;;;;;;;;;4.75;3.00;;;;;;;;4967885;28;10393;-80
2022/12/28 05:30:07;;;;;;;;;4.00;2.75;;;;;;;;4961178;28;10400;-80
2022/12/28 05:32:34;;;;;;;;;5.00;4.00;;;;;;;;4959316;28;10451;-81
2022/12/28 05:35:03;;;;;;;;;2.00;2.00;;;;;;;;4968426;28;10396;-80
2022/12/28 05:37:31;;;;;;;;;5.00;4.75;;;;;;;;4962721;28;10255;-81
2022/12/28 05:40:00;;;;;;;;;5.00;3.25;;;;;;;;4960727;28;10465;-81
2022/12/28 05:42:27;;;;;;;;;4.50;2.75;;;;;;;;4960011;28;10539;-80
2022/12/28 05:44:55;;;;;;;;;2.50;2.50;;;;;;;;4956704;28;10342;-81
2022/12/28 05:47:22;;;;;;;;;2.75;2.75;;;;;;;;4939475;28;10404;-81
2022/12/28 05:49:50;;;;;;;;;4.25;3.00;;;;;;;;4966403;28;10320;-81
2022/12/28 05:52:19;;;;;;;;;4.50;3.50;;;;;;;;4955607;28;11361;-81
2022/12/28 05:54:46;;;;;;;;;3.00;3.00;;;;;;;;4965253;28;11256;-82
2022/12/28 05:57:14;;;;;;;;;2.25;2.25;;;;;;;;4955737;28;10272;-81
2022/12/28 05:59:41;;;;;;;;;5.25;4.00;;;;;;;;4956002;28;10353;-82
2022/12/28 06:02:09;;;;;;;;;3.00;3.00;;;;;;;;4961520;28;10322;-81
2022/12/28 06:04:36;;;;;;;;;3.25;3.25;;;;;;;;4960244;28;10304;-80
2022/12/28 06:07:05;;;;;;;;;2.00;2.00;;;;;;;;4961023;28;11336;-81
2022/12/28 06:09:34;;;;;;;;;3.00;3.00;;;;;;;;4969939;28;10342;-81
2022/12/28 06:12:03;;;;;;;;;2.25;2.00;;;;;;;;4967640;28;10360;-81
2022/12/28 06:14:30;;;;;;;;;3.00;3.00;;;;;;;;4960888;28;10377;-80
2022/12/28 06:16:58;;;;;;;;;2.25;2.25;;;;;;;;4975326;28;10299;-80
2022/12/28 06:19:25;;;;;;;;;2.00;2.00;;;;;;;;4961256;28;10249;-81
2022/12/28 06:21:53;;;;;;;;;3.00;3.00;;;;;;;;4959722;28;10319;-81
2022/12/28 06:24:20;;;;;;;;;3.75;3.75;;;;;;;;4954994;28;10316;-81
2022/12/28 06:26:49;;;;;;;;;3.00;3.00;;;;;;;;4959477;28;10297;-81
2022/12/28 06:29:17;;;;;;;;;3.00;3.00;;;;;;;;4970877;28;10315;-81
2022/12/28 06:31:47;;;;;;;;;3.75;3.75;;;;;;;;4971288;28;10597;-80
2022/12/28 06:34:15;;;;;;;;;3.75;3.75;;;;;;;;4958195;28;10342;-80
2022/12/28 06:36:44;;;;;;;;;5.75;4.00;;;;;;;;4964362;28;10338;-80
2022/12/28 06:39:13;;;;;;;;;4.25;4.25;;;;;;;;4955913;28;10334;-81
2022/12/28 06:41:41;;;;;;;;;5.00;5.00;;;;;;;;4961080;28;10336;-81
2022/12/28 06:44:11;;;;;;;;;3.00;3.00;;;;;;;;4948246;28;10406;-81
2022/12/28 06:46:39;;;;;;;;;3.00;1.00;;;;;;;;4958189;28;10372;-82
2022/12/28 06:49:06;;;;;;;;;4.75;3.00;;;;;;;;4962652;28;10331;-81
2022/12/28 06:51:37;;;;;;;;;2.00;2.00;;;;;;;;4965128;28;10468;-81
2022/12/28 06:54:05;;;;;;;;;3.75;3.25;;;;;;;;4960518;28;11127;-81
2022/12/28 06:56:34;;;;;;;;;4.00;4.00;;;;;;;;4957757;28;10443;-80
2022/12/28 06:59:02;;;;;;;;;3.50;3.50;;;;;;;;4961813;28;10539;-80
2022/12/28 07:01:32;;;;;;;;;3.00;3.00;;;;;;;;4961210;28;10335;-80
2022/12/28 07:04:01;;;;;;;;;5.00;5.00;;;;;;;;4975314;28;10247;-81
2022/12/28 07:06:29;;;;;;;;;2.50;2.50;;;;;;;;4965600;28;10294;-81
2022/12/28 07:09:02;;;;;;;;;4.00;3.00;;;;;;;;4961019;28;10346;-80
2022/12/28 07:11:29;;;;;;;;;8.00;4.00;;;;;;;;4966820;28;10273;-81
2022/12/28 07:13:57;;;;;;;;;4.00;4.00;;;;;;;;4972380;28;10420;-80
2022/12/28 07:16:26;;;;;;;;;0.00;0.00;;;;;;;;4971094;28;10414;-81
2022/12/28 07:18:55;;;;;;;;;4.25;4.25;;;;;;;;4970244;28;11182;-80
2022/12/28 07:21:24;;;;;;;;;4.00;4.00;;;;;;;;4965626;28;11262;-80
2022/12/28 07:23:53;;;;;;;;;5.75;4.75;;;;;;;;4977234;28;10467;-80
2022/12/28 07:26:22;;;;;;;;;2.75;2.75;;;;;;;;4972487;28;10382;-79
2022/12/28 07:28:52;;;;;;;;;5.00;5.00;;;;;;;;4963480;28;10378;-80
2022/12/28 07:31:22;;;;;;;;;6.00;4.25;;;;;;;;4970028;28;10638;-82
2022/12/28 07:33:50;;;;;;;;;5.25;3.25;;;;;;;;4967433;28;10675;-77
2022/12/28 07:36:20;;;;;;;;;7.00;7.00;;;;;;;;4982303;28;10560;-78
2022/12/28 07:38:48;;;;;;;;;8.00;4.00;;;;;;;;4982097;28;10524;-79
2022/12/28 07:41:17;;;;;;;;;6.25;4.00;;;;;;;;4961261;28;10432;-80
2022/12/28 07:43:45;;;;;;;;;4.75;4.00;;;;;;;;4954600;28;10510;-80
2022/12/28 07:46:14;;;;;;;;;3.75;3.75;;;;;;;;4960503;28;10549;-81
2022/12/28 07:48:42;;;;;;;;;7.50;4.00;;;;;;;;4970330;28;10470;-81
2022/12/28 07:51:11;;;;;;;;;3.75;3.75;;;;;;;;4966955;28;10554;-81
2022/12/28 07:53:41;;;;;;;;;4.00;4.00;;;;;;;;4969261;28;10596;-80
2022/12/28 07:56:11;;;;;;;;;9.50;6.25;;;;;;;;4966904;28;10377;-82
2022/12/28 07:58:38;;;;;;;;;7.75;4.25;;;;;;;;4961481;28;10609;-77
2022/12/28 08:01:08;;;;;;;;;3.00;3.00;;;;;;;;4959275;28;10675;-79
2022/12/28 08:03:36;;;;;;;;;2.25;2.25;;;;;;;;4959603;28;10567;-81
2022/12/28 08:06:06;;;;;;;;;5.75;3.75;;;;;;;;4961443;28;10326;-80
2022/12/28 08:08:35;;;;;;;;;4.25;4.25;;;;;;;;4960532;28;10650;-79
2022/12/28 08:11:05;;;;;;;;;4.00;4.00;;;;;;;;4962375;28;10460;-78
2022/12/28 08:13:34;;;;;;;;;5.00;5.00;;;;;;;;4960018;28;10456;-79
2022/12/28 08:16:02;;;;;;;;;4.50;4.50;;;;;;;;4957195;28;10556;-75
2022/12/28 08:18:29;;;;;;;;;3.75;3.75;;;;;;;;4960717;28;10529;-78
2022/12/28 08:21:01;;;;;;;;;3.75;3.75;;;;;;;;4972160;28;10500;-79
2022/12/28 08:23:29;;;;;;;;;6.75;4.00;;;;;;;;4970579;28;10330;-80
2022/12/28 08:25:56;;;;;;;;;4.75;4.75;;;;;;;;4979617;28;10408;-79
2022/12/28 08:28:25;;;;;;;;;2.75;2.75;;;;;;;;4963484;28;10385;-78
2022/12/28 08:30:52;;;;;;;;;3.00;3.00;;;;;;;;4974770;28;10455;-79
2022/12/28 08:33:20;;;;;;;;;7.00;3.00;;;;;;;;4984490;28;10414;-81
2022/12/28 08:35:48;;;;;;;;;4.50;4.00;;;;;;;;4981650;28;10320;-82
2022/12/28 08:38:15;;;;;;;;;2.75;2.75;;;;;;;;4970363;28;10558;-81
2022/12/28 08:40:43;;;;;;;;;4.00;3.25;;;;;;;;4978498;28;10272;-82
2022/12/28 08:43:12;;;;;;;;;2.00;2.00;;;;;;;;4973534;28;11175;-83
2022/12/28 08:45:41;;;;;;;;;4.00;4.00;;;;;;;;4978372;28;10330;-82
2022/12/28 08:48:09;;;;;;;;;5.00;5.00;;;;;;;;4976626;28;10405;-78
2022/12/28 08:50:36;;;;;;;;;7.50;7.50;;;;;;;;4971842;28;10484;-81
2022/12/28 08:53:04;;;;;;;;;9.00;7.75;;;;;;;;4980243;28;11277;-77
2022/12/28 08:55:32;;;;;;;;;5.00;5.00;;;;;;;;4960315;28;10334;-79
2022/12/28 08:58:01;;;;;;;;;5.75;5.75;;;;;;;;4973891;28;10293;-80
2022/12/28 09:00:28;;;;;;;;;5.00;3.00;;;;;;;;4976802;28;10422;-79
2022/12/28 09:02:59;;;;;;;;;8.00;4.50;;;;;;;;4977433;28;10764;-82
2022/12/28 09:05:26;;;;;;;;;6.00;3.75;;;;;;;;4972350;28;10327;-76
2022/12/28 09:07:53;;;;;;;;;3.50;3.50;;;;;;;;4966936;28;10266;-79
2022/12/28 09:10:21;;;;;;;;;5.25;4.00;;;;;;;;4969191;28;10246;-78
2022/12/28 09:12:48;;;;;;;;;3.50;3.50;;;;;;;;4987356;28;11216;-78
2022/12/28 09:15:16;;;;;;;;;4.00;4.00;;;;;;;;4964717;28;10352;-79
2022/12/28 09:17:43;;;;;;;;;2.25;2.25;;;;;;;;4960694;28;10318;-78
2022/12/28 09:20:13;;;;;;;;;4.00;4.00;;;;;;;;4953388;28;10290;-76
2022/12/28 09:22:43;;;;;;;;;4.00;4.00;;;;;;;;4974012;28;10366;-75
2022/12/28 09:25:10;;;;;;;;;8.50;4.25;;;;;;;;4960866;28;10530;-77
2022/12/28 09:27:38;;;;;;;;;4.00;4.00;;;;;;;;4952447;28;10484;-77
2022/12/28 09:30:06;;;;;;;;;7.25;7.25;;;;;;;;4958042;28;10381;-76
2022/12/28 09:32:33;;;;;;;;;4.00;4.00;;;;;;;;4956593;28;10487;-76
2022/12/28 09:35:01;;;;;;;;;9.00;6.50;;;;;;;;4955050;28;10263;-77
2022/12/28 09:37:30;;;;;;;;;4.50;4.50;;;;;;;;4956275;28;10343;-75
2022/12/28 09:39:57;;;;;;;;;3.00;2.00;;;;;;;;4966167;28;10422;-76
2022/12/28 09:42:28;;;;;;;;;4.00;4.00;;;;;;;;4969229;28;10237;-76
2022/12/28 09:45:02;;;;;;;;;6.50;4.75;;;;;;;;4966343;28;11121;-76
2022/12/28 09:47:34;;;;;;;;;5.00;5.00;;;;;;;;4956644;28;10281;-78
2022/12/28 09:50:23;;;;;;;;;2.75;2.75;;;;;;;;4955474;28;10170;-76
2022/12/28 09:53:18;;;;;;;;;3.75;2.50;;;;;;;;4958851;28;10296;-76
2022/12/28 09:55:57;;;;;;;;;3.75;3.75;;;;;;;;4963234;28;10003;-76
2022/12/28 09:58:24;;;;;;;;;2.00;2.00;;;;;;;;4967737;28;10150;-76
2022/12/28 10:00:53;;;;;;;;;2.25;2.25;;;;;;;;4956323;28;10132;-76
2022/12/28 10:03:23;;;;;;;;;3.00;2.25;;;;;;;;4954923;28;10174;-76
2022/12/28 10:05:52;;;;;;;;;3.50;2.00;;;;;;;;4961703;28;10135;-75
2022/12/28 10:08:22;;;;;;;;;2.00;2.00;;;;;;;;4967246;28;10114;-77
2022/12/28 10:10:50;;;;;;;;;2.50;2.50;;;;;;;;4957478;28;10107;-78
2022/12/28 10:13:21;;;;;;;;;3.75;3.75;;;;;;;;4950360;28;10404;-80
2022/12/28 10:15:49;;;;;;;;;3.00;2.00;;;;;;;;4955418;28;10210;-76
2022/12/28 10:18:20;;;;;;;;;2.00;2.00;;;;;;;;4966169;28;10176;-73
2022/12/28 10:20:48;;;;;;;;;2.00;2.00;;;;;;;;4965518;28;10110;-75
2022/12/28 10:23:21;;;;;;;;;3.50;2.00;;;;;;;;4952355;28;10071;-75
2022/12/28 10:25:50;;;;;;;;;3.50;2.75;;;;;;;;4958275;28;10910;-75
2022/12/28 10:28:19;;;;;;;;;2.00;2.00;;;;;;;;4956394;28;9932;-75
2022/12/28 10:30:48;;;;;;;;;4.00;2.75;;;;;;;;4953832;28;9892;-74
2022/12/28 10:33:19;;;;;;;;;5.00;2.00;;;;;;;;4964995;28;9852;-74
2022/12/28 10:35:51;;;;;;;;;1.00;1.00;;;;;;;;4964182;28;9804;-75
2022/12/28 10:38:24;;;;;;;;;2.50;1.00;;;;;;;;4971805;28;9756;-75
2022/12/28 10:40:59;;;;;;;;;2.00;2.00;;;;;;;;4963057;28;9722;-76
2022/12/28 10:43:29;;;;;;;;;4.00;4.00;;;;;;;;4957650;28;9798;-75
2022/12/28 10:45:58;;;;;;;;;5.00;4.00;;;;;;;;4976498;28;9866;-76
2022/12/28 10:48:28;;;;;;;;;2.25;2.25;;;;;;;;4958729;28;9801;-74
2022/12/28 10:50:59;;;;;;;;;3.00;3.00;;;;;;;;4960798;28;9780;-76
2022/12/28 10:53:30;;;;;;;;;3.00;3.00;;;;;;;;4965513;28;9711;-76
2022/12/28 10:56:07;;;;;;;;;2.00;2.00;;;;;;;;4962198;28;9618;-76
2022/12/28 10:58:35;;;;;;;;;3.00;2.00;;;;;;;;4960046;28;10506;-75
2022/12/28 11:01:06;;;;;;;;;2.00;2.00;;;;;;;;4962121;28;9625;-75
2022/12/28 11:03:35;;;;;;;;;4.00;4.00;;;;;;;;4961822;28;9658;-75
2022/12/28 11:06:15;;;;;;;;;4.00;4.00;;;;;;;;4962446;28;9741;-75
2022/12/28 11:08:46;;;;;;;;;3.00;3.00;;;;;;;;4960465;28;9812;-75
2022/12/28 11:11:19;;;;;;;;;3.50;3.00;;;;;;;;4956988;28;9734;-75
2022/12/28 11:13:50;;;;;;;;;4.00;4.00;;;;;;;;4961217;28;10528;-75
2022/12/28 11:16:18;;;;;;;;;2.75;2.75;;;;;;;;4959647;28;9790;-78
2022/12/28 11:18:45;;;;;;;;;2.25;2.25;;;;;;;;4976041;28;9717;-78
2022/12/28 11:21:17;;;;;;;;;2.00;2.00;;;;;;;;4959476;28;9801;-77
2022/12/28 11:23:47;;;;;;;;;3.75;3.75;;;;;;;;4957713;28;9511;-79
2022/12/28 11:26:18;;;;;;;;;4.00;2.25;;;;;;;;4964479;28;10595;-78
2022/12/28 11:28:50;;;;;;;;;4.00;2.50;;;;;;;;4971061;28;9611;-78
2022/12/28 11:31:23;;;;;;;;;3.00;3.00;;;;;;;;4967993;28;9727;-78
2022/12/28 11:33:52;;;;;;;;;5.00;3.25;;;;;;;;4986000;28;9641;-77
2022/12/28 11:36:22;;;;;;;;;1.50;1.50;;;;;;;;4962423;28;9612;-75
2022/12/28 11:38:52;;;;;;;;;2.75;2.00;;;;;;;;4957455;28;9709;-74
2022/12/28 11:41:42;;;;;;;;;3.00;3.00;;;;;;;;4964663;28;9630;-74
2022/12/28 11:44:21;;;;;;;;;2.00;2.00;;;;;;;;4963774;28;9765;-73
2022/12/28 11:47:02;;;;;;;;;1.00;1.00;;;;;;;;4963963;28;9758;-72
2022/12/28 11:49:33;;;;;;;;;4.00;2.25;;;;;;;;4962069;28;10633;-75
2022/12/28 11:52:43;;;;;;;;;3.00;3.00;;;;;;;;4957035;28;9772;-76
2022/12/28 11:55:47;;;;;;;;;3.75;3.75;;;;;;;;4970727;28;9607;-75
2022/12/28 11:58:53;;;;;;;;;3.50;3.50;;;;;;;;4969361;28;9946;-75
2022/12/28 12:01:57;;;;;;;;;2.25;2.25;;;;;;;;4959655;28;9694;-75
2022/12/28 12:04:40;;;;;;;;;2.00;2.00;;;;;;;;4977465;28;9570;-77
2022/12/28 12:07:26;;;;;;;;;4.00;2.50;;;;;;;;4970413;28;9685;-75
2022/12/28 12:10:21;;;;;;;;;4.25;3.00;;;;;;;;4959883;28;9595;-75
2022/12/28 12:12:51;;;;;;;;;2.00;2.00;;;;;;;;4957333;28;9564;-76
2022/12/28 12:15:31;;;;;;;;;2.50;2.50;;;;;;;;4962923;28;9486;-73
2022/12/28 12:18:02;;;;;;;;;2.00;2.00;;;;;;;;4970611;28;9438;-73
2022/12/28 12:20:56;;;;;;;;;3.00;3.00;;;;;;;;4957146;28;9534;-78
2022/12/28 12:23:39;;;;;;;;;2.50;2.50;;;;;;;;4963844;28;9614;-78
2022/12/28 12:26:28;;;;;;;;;2.25;2.00;;;;;;;;4966651;28;10906;-79
2022/12/28 12:28:59;;;;;;;;;1.00;1.00;;;;;;;;4958681;28;9605;-78
2022/12/28 12:31:31;;;;;;;;;0.25;0.25;;;;;;;;4944421;28;9424;-76
2022/12/28 12:34:03;;;;;;;;;3.00;3.00;;;;;;;;4960426;28;9492;-76
2022/12/28 12:36:47;;;;;;;;;1.50;1.50;;;;;;;;4959770;28;9779;-76
2022/12/28 12:39:32;;;;;;;;;1.00;1.00;;;;;;;;4963257;28;9580;-77
2022/12/28 12:42:08;;;;;;;;;3.00;3.00;;;;;;;;4948392;28;9690;-77
2022/12/28 12:44:40;;;;;;;;;1.25;1.25;;;;;;;;4956913;28;9796;-77
2022/12/28 12:47:28;;;;;;;;;4.00;2.00;;;;;;;;4958334;28;9664;-75
2022/12/28 12:50:15;;;;;;;;;1.25;1.25;;;;;;;;4973936;28;9640;-72
2022/12/28 12:52:53;;;;;;;;;2.00;2.00;;;;;;;;4957833;28;9626;-74
2022/12/28 12:55:29;;;;;;;;;2.00;2.00;;;;;;;;4956007;28;9706;-73
2022/12/28 12:57:59;;;;;;;;;2.00;2.00;;;;;;;;4961089;28;9723;-74
2022/12/28 13:00:32;;;;;;;;;1.75;1.75;;;;;;;;4952665;28;9748;-75
2022/12/28 13:03:17;;;;;;;;;4.50;3.00;;;;;;;;4961011;28;9807;-79
2022/12/28 13:05:49;;;;;;;;;2.00;2.00;;;;;;;;4957676;28;9722;-82
2022/12/28 13:08:23;;;;;;;;;2.75;2.75;;;;;;;;4959878;28;9771;-78
2022/12/28 13:10:50;;;;;;;;;1.00;1.00;;;;;;;;4959513;28;9765;-77
2022/12/28 13:13:27;;;;;;;;;3.00;3.00;;;;;;;;4965054;28;9584;-80
2022/12/28 13:15:59;;;;;;;;;3.00;1.25;;;;;;;;4962995;28;9761;-79
2022/12/28 13:18:28;;;;;;;;;1.75;1.75;;;;;;;;4959719;28;9689;-74
2022/12/28 13:20:57;;;;;;;;;3.00;3.00;;;;;;;;4954864;28;9590;-77
2022/12/28 13:23:25;;;;;;;;;3.00;3.00;;;;;;;;4956492;28;9699;-76
2022/12/28 13:25:54;;;;;;;;;4.00;2.50;;;;;;;;4954800;28;9605;-77
2022/12/28 13:28:23;;;;;;;;;3.75;3.75;;;;;;;;4957044;28;9598;-76
2022/12/28 13:31:07;;;;;;;;;3.00;3.00;;;;;;;;4953897;28;9833;-76
2022/12/28 13:33:36;;;;;;;;;3.50;3.50;;;;;;;;4971641;28;9793;-77
2022/12/28 13:36:15;;;;;;;;;1.50;1.50;;;;;;;;4963560;28;10456;-77
2022/12/28 13:38:42;;;;;;;;;3.00;3.00;;;;;;;;4958762;28;9717;-76
2022/12/28 13:41:20;;;;;;;;;2.50;2.50;;;;;;;;4959134;28;9754;-76
2022/12/28 13:44:18;;;;;;;;;4.00;4.00;;;;;;;;4958319;28;9680;-76
2022/12/28 13:46:49;;;;;;;;;1.25;1.00;;;;;;;;4958110;28;9898;-76
2022/12/28 13:49:19;;;;;;;;;4.00;2.75;;;;;;;;4955081;28;9712;-76
2022/12/28 13:51:46;;;;;;;;;2.00;2.00;;;;;;;;4967841;28;9770;-76
2022/12/28 13:54:14;;;;;;;;;2.00;2.00;;;;;;;;4949684;28;9897;-79
2022/12/28 13:56:43;;;;;;;;;3.00;3.00;;;;;;;;4969764;28;10018;-78
2022/12/28 13:59:13;;;;;;;;;3.75;3.25;;;;;;;;4959033;28;9867;-76
2022/12/28 14:01:42;;;;;;;;;3.25;3.25;;;;;;;;4965141;28;9863;-75
2022/12/28 14:04:13;;;;;;;;;3.00;3.00;;;;;;;;4959836;28;9780;-76
2022/12/28 14:06:42;;;;;;;;;4.50;3.00;;;;;;;;4963839;28;10570;-76
2022/12/28 14:09:11;;;;;;;;;2.75;2.75;;;;;;;;4966364;28;10866;-76
2022/12/28 14:11:39;;;;;;;;;3.00;3.00;;;;;;;;4974343;28;9933;-76
2022/12/28 14:14:07;;;;;;;;;4.75;4.00;;;;;;;;4962583;28;9942;-77
2022/12/28 14:16:35;;;;;;;;;3.75;3.75;;;;;;;;4959689;28;10037;-75
2022/12/28 14:19:03;;;;;;;;;4.25;4.25;;;;;;;;4959251;28;10104;-76
2022/12/28 14:21:36;;;;;;;;;4.50;4.50;;;;;;;;4967866;28;10179;-76
2022/12/28 14:24:07;;;;;;;;;2.75;2.75;;;;;;;;4961143;28;10198;-77
2022/12/28 14:26:35;;;;;;;;;2.50;2.50;;;;;;;;4956887;28;10058;-75
2022/12/28 14:29:03;;;;;;;;;3.75;3.75;;;;;;;;4961403;28;10108;-74
2022/12/28 14:31:32;;;;;;;;;3.00;3.00;;;;;;;;4955521;28;10352;-76
2022/12/28 14:34:01;;;;;;;;;4.00;4.00;;;;;;;;4956554;28;10247;-75
2022/12/28 14:36:30;;;;;;;;;7.25;4.75;;;;;;;;4963765;28;10251;-76
2022/12/28 14:38:59;;;;;;;;;4.00;4.00;;;;;;;;4956736;28;10350;-76
2022/12/28 14:41:30;;;;;;;;;4.25;4.25;;;;;;;;4969738;28;10432;-75
2022/12/28 14:44:00;;;;;;;;;4.50;4.50;;;;;;;;4963668;28;11247;-75
2022/12/28 14:46:32;;;;;;;;;5.75;5.75;;;;;;;;4974925;28;10525;-76
2022/12/28 14:49:00;;;;;;;;;4.25;4.25;;;;;;;;4962094;28;10455;-75
2022/12/28 14:51:30;;;;;;;;;5.00;5.00;;;;;;;;4960650;28;11372;-77
2022/12/28 14:54:19;;;;;;;;;3.50;3.50;;;;;;;;4959614;28;10537;-78
2022/12/28 14:56:52;;;;;;;;;6.50;6.50;;;;;;;;4968803;28;10498;-76
2022/12/28 14:59:24;;;;;;;;;6.50;6.50;;;;;;;;4974954;28;11491;-77
2022/12/28 15:01:51;;;;;;;;;8.25;6.00;;;;;;;;4961131;28;10521;-75
2022/12/28 15:04:28;;;;;;;;;6.25;6.25;;;;;;;;4951508;28;10606;-76
2022/12/28 15:06:55;;;;;;;;;8.50;5.00;;;;;;;;4957893;28;10532;-76
2022/12/28 15:09:22;;;;;;;;;5.25;5.25;;;;;;;;4954966;28;10326;-76
2022/12/28 15:12:08;;;;;;;;;5.00;5.00;;;;;;;;4963101;28;10512;-77
2022/12/28 15:14:35;;;;;;;;;6.00;6.00;;;;;;;;4961175;28;10349;-76
2022/12/28 15:17:02;;;;;;;;;7.25;7.25;;;;;;;;4967526;28;10469;-77
2022/12/28 15:19:30;;;;;;;;;6.25;6.25;;;;;;;;4964398;28;10370;-76
2022/12/28 15:21:57;;;;;;;;;8.00;5.00;;;;;;;;4971510;28;10415;-76
2022/12/28 15:24:26;;;;;;;;;5.25;5.25;;;;;;;;4987565;28;10454;-76
2022/12/28 15:26:55;;;;;;;;;4.50;4.50;;;;;;;;4964216;28;10304;-79
2022/12/28 15:29:23;;;;;;;;;4.00;4.00;;;;;;;;4959998;28;10270;-78
2022/12/28 15:31:52;;;;;;;;;5.25;4.25;;;;;;;;4969873;28;10376;-78
2022/12/28 15:34:21;;;;;;;;;8.25;5.50;;;;;;;;4966101;28;10396;-78